California Conservation Cent, California
Current Conditions -  °F | °C
As of 10:55 PM on Wednesday 22 Oct 2014 (Local Time) from KAAT Reporting Station
Overcast Overcast  
Wind Chill: 53°   Ceiling: 6000
Heat Index: 53°   Visibility: 10mi
Dew Point: 37°   Wind: 9mph
Humidity: 55%   Direction: 180°S
Pressure: 30.08"   Gusts: NA
Location:  40.5172°N, 120.68°W
Report Text: KAAT 230555Z AUTO 18008KT 10SM FEW047 BKN060 OVC070 12/03 A3008 RMK AO2 SLP168 T01170028 10139 20111 53003
Loading
Personal Weather Stations






























Interactive Weather Map
Tropical Storm Tracking
New forecast layout! Learn more

10-Day Weather Forecast

Advertisements
Track Severe Weather on mobile